sensor_id;sensor_type;location;lat;lon;timestamp;P1;durP1;ratioP1;P2;durP2;ratioP2
71108;SDS011;59614;51.012;-1.648;2023-04-03T14:18:19;8.45;;;4.55;;
71108;SDS011;59614;51.012;-1.648;2023-04-03T14:20:46;8.83;;;4.57;;
71108;SDS011;59614;51.012;-1.648;2023-04-03T14:23:12;9.43;;;4.75;;
71108;SDS011;59614;51.012;-1.648;2023-04-03T14:25:37;7.38;;;4.50;;
71108;SDS011;59614;51.012;-1.648;2023-04-03T14:28:12;8.18;;;4.53;;
71108;SDS011;59614;51.012;-1.648;2023-04-03T14:30:41;12.27;;;4.57;;
71108;SDS011;59614;51.012;-1.648;2023-04-03T14:33:06;10.00;;;4.70;;
71108;SDS011;59614;51.012;-1.648;2023-04-03T14:35:36;7.95;;;4.72;;
71108;SDS011;59614;51.012;-1.648;2023-04-03T14:38:02;9.57;;;4.20;;
71108;SDS011;59614;51.012;-1.648;2023-04-03T14:40:30;6.90;;;3.97;;
71108;SDS011;59614;51.012;-1.648;2023-04-03T14:42:56;11.27;;;4.53;;
71108;SDS011;59614;51.012;-1.648;2023-04-03T14:45:22;9.55;;;4.32;;
71108;SDS011;59614;51.012;-1.648;2023-04-03T14:47:49;7.88;;;4.30;;
71108;SDS011;59614;51.012;-1.648;2023-04-03T14:50:23;8.95;;;3.92;;
71108;SDS011;59614;51.012;-1.648;2023-04-03T14:52:50;13.38;;;4.75;;
71108;SDS011;59614;51.012;-1.648;2023-04-03T14:55:19;9.15;;;4.57;;
71108;SDS011;59614;51.012;-1.648;2023-04-03T14:57:47;7.20;;;4.55;;
71108;SDS011;59614;51.012;-1.648;2023-04-03T15:00:13;7.10;;;3.88;;
71108;SDS011;59614;51.012;-1.648;2023-04-03T15:02:40;8.23;;;4.00;;
71108;SDS011;59614;51.012;-1.648;2023-04-03T15:05:07;8.23;;;3.72;;
71108;SDS011;59614;51.012;-1.648;2023-04-03T15:07:35;8.63;;;3.80;;
71108;SDS011;59614;51.012;-1.648;2023-04-03T15:10:06;6.97;;;3.83;;
71108;SDS011;59614;51.012;-1.648;2023-04-03T15:12:38;10.45;;;3.95;;
71108;SDS011;59614;51.012;-1.648;2023-04-03T15:15:04;5.97;;;3.97;;
71108;SDS011;59614;51.012;-1.648;2023-04-03T15:17:30;6.45;;;4.05;;
71108;SDS011;59614;51.012;-1.648;2023-04-03T15:19:55;8.93;;;4.13;;
71108;SDS011;59614;51.012;-1.648;2023-04-03T15:22:21;10.70;;;4.35;;
71108;SDS011;59614;51.012;-1.648;2023-04-03T15:24:46;10.27;;;3.53;;
71108;SDS011;59614;51.012;-1.648;2023-04-03T15:27:12;7.65;;;3.97;;
71108;SDS011;59614;51.012;-1.648;2023-04-03T15:29:39;13.07;;;4.18;;
71108;SDS011;59614;51.012;-1.648;2023-04-03T15:32:06;8.15;;;3.78;;
71108;SDS011;59614;51.012;-1.648;2023-04-03T15:34:32;10.75;;;4.10;;
71108;SDS011;59614;51.012;-1.648;2023-04-03T15:36:57;7.65;;;3.80;;
71108;SDS011;59614;51.012;-1.648;2023-04-03T15:39:24;10.05;;;4.30;;
71108;SDS011;59614;51.012;-1.648;2023-04-03T15:41:50;8.93;;;4.38;;
71108;SDS011;59614;51.012;-1.648;2023-04-03T15:44:17;12.38;;;5.13;;
71108;SDS011;59614;51.012;-1.648;2023-04-03T15:46:44;11.65;;;4.10;;
71108;SDS011;59614;51.012;-1.648;2023-04-03T15:49:14;10.10;;;4.03;;
71108;SDS011;59614;51.012;-1.648;2023-04-03T15:51:40;9.95;;;3.72;;
71108;SDS011;59614;51.012;-1.648;2023-04-03T15:54:05;9.23;;;4.00;;
71108;SDS011;59614;51.012;-1.648;2023-04-03T15:56:31;8.32;;;3.70;;
71108;SDS011;59614;51.012;-1.648;2023-04-03T15:58:56;8.10;;;3.83;;
71108;SDS011;59614;51.012;-1.648;2023-04-03T16:01:22;7.07;;;3.63;;
71108;SDS011;59614;51.012;-1.648;2023-04-03T16:03:47;8.05;;;3.70;;
71108;SDS011;59614;51.012;-1.648;2023-04-03T16:06:16;12.15;;;3.70;;
71108;SDS011;59614;51.012;-1.648;2023-04-03T16:08:46;7.53;;;3.83;;
71108;SDS011;59614;51.012;-1.648;2023-04-03T16:11:13;10.98;;;3.90;;
71108;SDS011;59614;51.012;-1.648;2023-04-03T16:13:38;7.60;;;3.55;;
71108;SDS011;59614;51.012;-1.648;2023-04-03T16:16:04;9.25;;;3.25;;
71108;SDS011;59614;51.012;-1.648;2023-04-03T16:18:30;8.52;;;3.78;;
71108;SDS011;59614;51.012;-1.648;2023-04-03T16:20:56;8.00;;;3.65;;
71108;SDS011;59614;51.012;-1.648;2023-04-03T16:23:22;7.35;;;3.63;;
71108;SDS011;59614;51.012;-1.648;2023-04-03T16:25:48;9.45;;;3.78;;
71108;SDS011;59614;51.012;-1.648;2023-04-03T16:28:15;7.50;;;3.50;;
71108;SDS011;59614;51.012;-1.648;2023-04-03T16:30:42;13.48;;;4.22;;
71108;SDS011;59614;51.012;-1.648;2023-04-03T16:33:10;11.55;;;3.47;;
71108;SDS011;59614;51.012;-1.648;2023-04-03T16:35:36;8.18;;;3.45;;
71108;SDS011;59614;51.012;-1.648;2023-04-03T16:38:02;5.78;;;3.28;;
71108;SDS011;59614;51.012;-1.648;2023-04-03T16:40:27;10.20;;;3.50;;
71108;SDS011;59614;51.012;-1.648;2023-04-03T16:42:53;7.85;;;3.60;;
71108;SDS011;59614;51.012;-1.648;2023-04-03T16:45:18;7.78;;;3.30;;
71108;SDS011;59614;51.012;-1.648;2023-04-03T16:47:44;11.77;;;3.50;;
71108;SDS011;59614;51.012;-1.648;2023-04-03T16:50:09;9.32;;;3.20;;
71108;SDS011;59614;51.012;-1.648;2023-04-03T16:52:35;12.02;;;3.60;;
71108;SDS011;59614;51.012;-1.648;2023-04-03T16:55:01;9.57;;;3.38;;
71108;SDS011;59614;51.012;-1.648;2023-04-03T16:57:27;9.85;;;3.15;;
71108;SDS011;59614;51.012;-1.648;2023-04-03T16:59:52;10.95;;;3.20;;
71108;SDS011;59614;51.012;-1.648;2023-04-03T17:02:19;7.80;;;3.20;;
71108;SDS011;59614;51.012;-1.648;2023-04-03T17:04:45;6.70;;;3.45;;
71108;SDS011;59614;51.012;-1.648;2023-04-03T17:07:11;9.43;;;3.08;;
71108;SDS011;59614;51.012;-1.648;2023-04-03T17:09:36;10.18;;;3.25;;
71108;SDS011;59614;51.012;-1.648;2023-04-03T17:12:03;9.30;;;3.70;;
71108;SDS011;59614;51.012;-1.648;2023-04-03T17:14:28;10.73;;;3.28;;
71108;SDS011;59614;51.012;-1.648;2023-04-03T17:16:54;9.98;;;3.45;;
71108;SDS011;59614;51.012;-1.648;2023-04-03T17:19:20;19.00;;;3.33;;
71108;SDS011;59614;51.012;-1.648;2023-04-03T17:21:46;11.10;;;3.75;;
71108;SDS011;59614;51.012;-1.648;2023-04-03T17:24:11;13.15;;;3.55;;
71108;SDS011;59614;51.012;-1.648;2023-04-03T17:26:40;9.45;;;3.00;;
71108;SDS011;59614;51.012;-1.648;2023-04-03T17:29:06;13.37;;;2.90;;
71108;SDS011;59614;51.012;-1.648;2023-04-03T17:31:32;8.45;;;2.80;;
71108;SDS011;59614;51.012;-1.648;2023-04-03T17:33:57;9.38;;;3.10;;
71108;SDS011;59614;51.012;-1.648;2023-04-03T17:36:26;10.15;;;3.17;;
71108;SDS011;59614;51.012;-1.648;2023-04-03T17:38:53;8.45;;;2.92;;
71108;SDS011;59614;51.012;-1.648;2023-04-03T17:41:18;9.23;;;2.90;;
71108;SDS011;59614;51.012;-1.648;2023-04-03T17:43:44;12.55;;;3.20;;
71108;SDS011;59614;51.012;-1.648;2023-04-03T17:46:10;9.73;;;3.20;;
71108;SDS011;59614;51.012;-1.648;2023-04-03T17:48:36;12.07;;;3.03;;
71108;SDS011;59614;51.012;-1.648;2023-04-03T17:53:37;15.68;;;4.18;;
71108;SDS011;59614;51.012;-1.648;2023-04-03T17:56:10;17.63;;;3.25;;
71108;SDS011;59614;51.012;-1.648;2023-04-03T17:58:38;7.18;;;3.47;;
71108;SDS011;59614;51.012;-1.648;2023-04-03T18:01:09;10.20;;;2.80;;
71108;SDS011;59614;51.012;-1.648;2023-04-03T18:03:39;10.48;;;2.85;;
71108;SDS011;59614;51.012;-1.648;2023-04-03T18:06:07;6.38;;;2.95;;
71108;SDS011;59614;51.012;-1.648;2023-04-03T18:08:35;10.20;;;3.05;;
71108;SDS011;59614;51.012;-1.648;2023-04-03T18:11:04;11.18;;;3.58;;
71108;SDS011;59614;51.012;-1.648;2023-04-03T18:13:30;9.90;;;3.33;;
71108;SDS011;59614;51.012;-1.648;2023-04-03T18:15:56;9.18;;;3.30;;
71108;SDS011;59614;51.012;-1.648;2023-04-03T18:18:22;10.75;;;2.85;;
71108;SDS011;59614;51.012;-1.648;2023-04-03T18:20:47;12.98;;;5.10;;
71108;SDS011;59614;51.012;-1.648;2023-04-03T18:23:13;8.38;;;3.22;;
71108;SDS011;59614;51.012;-1.648;2023-04-03T18:25:39;9.57;;;3.60;;
71108;SDS011;59614;51.012;-1.648;2023-04-03T18:28:04;12.23;;;4.10;;
71108;SDS011;59614;51.012;-1.648;2023-04-03T18:30:31;12.82;;;4.68;;
71108;SDS011;59614;51.012;-1.648;2023-04-03T18:35:24;9.70;;;3.88;;
71108;SDS011;59614;51.012;-1.648;2023-04-03T18:37:49;9.65;;;3.05;;
71108;SDS011;59614;51.012;-1.648;2023-04-03T18:40:15;9.75;;;2.70;;
71108;SDS011;59614;51.012;-1.648;2023-04-03T18:42:41;9.63;;;3.20;;
71108;SDS011;59614;51.012;-1.648;2023-04-03T18:45:07;13.77;;;3.00;;
71108;SDS011;59614;51.012;-1.648;2023-04-03T18:47:35;14.82;;;2.75;;
71108;SDS011;59614;51.012;-1.648;2023-04-03T18:50:02;11.27;;;3.15;;
71108;SDS011;59614;51.012;-1.648;2023-04-03T18:52:29;10.02;;;2.90;;
71108;SDS011;59614;51.012;-1.648;2023-04-03T18:54:54;12.38;;;3.22;;
71108;SDS011;59614;51.012;-1.648;2023-04-03T18:57:21;11.85;;;3.40;;
71108;SDS011;59614;51.012;-1.648;2023-04-03T18:59:47;11.95;;;3.30;;
71108;SDS011;59614;51.012;-1.648;2023-04-03T19:02:12;8.57;;;3.60;;
71108;SDS011;59614;51.012;-1.648;2023-04-03T19:04:39;11.83;;;3.90;;
71108;SDS011;59614;51.012;-1.648;2023-04-03T19:07:06;16.38;;;4.60;;
71108;SDS011;59614;51.012;-1.648;2023-04-03T19:09:32;9.05;;;3.58;;
71108;SDS011;59614;51.012;-1.648;2023-04-03T19:11:58;16.83;;;4.47;;
71108;SDS011;59614;51.012;-1.648;2023-04-03T19:14:26;9.17;;;3.47;;
71108;SDS011;59614;51.012;-1.648;2023-04-03T19:16:51;13.60;;;4.03;;
71108;SDS011;59614;51.012;-1.648;2023-04-03T19:19:17;9.07;;;3.58;;
71108;SDS011;59614;51.012;-1.648;2023-04-03T19:21:42;16.70;;;4.82;;
71108;SDS011;59614;51.012;-1.648;2023-04-03T19:24:09;18.95;;;9.23;;
71108;SDS011;59614;51.012;-1.648;2023-04-03T19:26:35;21.73;;;9.63;;
71108;SDS011;59614;51.012;-1.648;2023-04-03T19:29:01;60.70;;;28.80;;
71108;SDS011;59614;51.012;-1.648;2023-04-03T19:31:27;62.65;;;31.27;;
71108;SDS011;59614;51.012;-1.648;2023-04-03T19:33:52;67.90;;;28.63;;
71108;SDS011;59614;51.012;-1.648;2023-04-03T19:36:18;59.78;;;30.52;;
71108;SDS011;59614;51.012;-1.648;2023-04-03T19:38:44;54.08;;;23.55;;
71108;SDS011;59614;51.012;-1.648;2023-04-03T19:41:11;29.33;;;14.80;;
71108;SDS011;59614;51.012;-1.648;2023-04-03T19:43:39;29.63;;;14.25;;
71108;SDS011;59614;51.012;-1.648;2023-04-03T19:46:06;22.95;;;12.27;;
71108;SDS011;59614;51.012;-1.648;2023-04-03T19:48:32;36.08;;;15.32;;
71108;SDS011;59614;51.012;-1.648;2023-04-03T19:50:57;36.15;;;15.30;;
71108;SDS011;59614;51.012;-1.648;2023-04-03T19:53:23;24.48;;;12.90;;
71108;SDS011;59614;51.012;-1.648;2023-04-03T19:55:53;25.20;;;14.00;;
71108;SDS011;59614;51.012;-1.648;2023-04-03T19:58:20;25.17;;;12.38;;
71108;SDS011;59614;51.012;-1.648;2023-04-03T20:00:46;19.88;;;10.25;;
71108;SDS011;59614;51.012;-1.648;2023-04-03T20:03:12;19.55;;;8.90;;
71108;SDS011;59614;51.012;-1.648;2023-04-03T20:05:37;16.60;;;7.75;;
71108;SDS011;59614;51.012;-1.648;2023-04-03T20:08:02;13.60;;;6.97;;
71108;SDS011;59614;51.012;-1.648;2023-04-03T20:10:28;9.70;;;5.90;;
71108;SDS011;59614;51.012;-1.648;2023-04-03T20:12:54;17.52;;;5.65;;
71108;SDS011;59614;51.012;-1.648;2023-04-03T20:15:19;10.60;;;4.82;;
71108;SDS011;59614;51.012;-1.648;2023-04-03T20:17:45;12.68;;;5.88;;
71108;SDS011;59614;51.012;-1.648;2023-04-03T20:20:11;14.30;;;6.20;;
71108;SDS011;59614;51.012;-1.648;2023-04-03T20:22:37;12.95;;;7.43;;
71108;SDS011;59614;51.012;-1.648;2023-04-03T20:25:04;15.43;;;6.78;;
71108;SDS011;59614;51.012;-1.648;2023-04-03T20:27:30;12.53;;;5.67;;
71108;SDS011;59614;51.012;-1.648;2023-04-03T20:29:56;8.95;;;5.25;;
71108;SDS011;59614;51.012;-1.648;2023-04-03T20:32:22;16.85;;;5.28;;
71108;SDS011;59614;51.012;-1.648;2023-04-03T20:34:47;11.93;;;5.10;;
71108;SDS011;59614;51.012;-1.648;2023-04-03T20:37:13;9.68;;;5.15;;
71108;SDS011;59614;51.012;-1.648;2023-04-03T20:39:44;13.13;;;4.90;;
71108;SDS011;59614;51.012;-1.648;2023-04-03T20:42:09;11.88;;;5.70;;
71108;SDS011;59614;51.012;-1.648;2023-04-03T20:44:35;15.85;;;5.93;;
71108;SDS011;59614;51.012;-1.648;2023-04-03T20:47:00;13.93;;;6.10;;
71108;SDS011;59614;51.012;-1.648;2023-04-03T20:49:26;16.92;;;6.03;;
71108;SDS011;59614;51.012;-1.648;2023-04-03T20:51:51;13.45;;;5.97;;
71108;SDS011;59614;51.012;-1.648;2023-04-03T20:54:17;10.63;;;5.20;;
71108;SDS011;59614;51.012;-1.648;2023-04-03T20:56:43;13.30;;;5.82;;
71108;SDS011;59614;51.012;-1.648;2023-04-03T20:59:11;13.95;;;5.53;;
71108;SDS011;59614;51.012;-1.648;2023-04-03T21:01:38;14.27;;;4.78;;
71108;SDS011;59614;51.012;-1.648;2023-04-03T21:04:13;8.27;;;5.18;;
71108;SDS011;59614;51.012;-1.648;2023-04-03T21:20:53;11.77;;;5.38;;
71108;SDS011;59614;51.012;-1.648;2023-04-03T21:23:19;12.40;;;4.85;;
71108;SDS011;59614;51.012;-1.648;2023-04-03T21:25:48;8.50;;;5.18;;
71108;SDS011;59614;51.012;-1.648;2023-04-03T21:28:14;10.13;;;5.45;;
71108;SDS011;59614;51.012;-1.648;2023-04-03T21:30:40;9.80;;;4.90;;
71108;SDS011;59614;51.012;-1.648;2023-04-03T21:33:06;12.50;;;5.20;;
71108;SDS011;59614;51.012;-1.648;2023-04-03T21:35:31;8.10;;;4.78;;
71108;SDS011;59614;51.012;-1.648;2023-04-03T21:37:57;7.65;;;4.75;;
71108;SDS011;59614;51.012;-1.648;2023-04-03T21:40:23;9.20;;;4.85;;
71108;SDS011;59614;51.012;-1.648;2023-04-03T21:42:53;7.80;;;4.93;;
71108;SDS011;59614;51.012;-1.648;2023-04-03T21:45:18;11.07;;;4.85;;
71108;SDS011;59614;51.012;-1.648;2023-04-03T21:47:44;12.80;;;5.25;;
71108;SDS011;59614;51.012;-1.648;2023-04-03T21:50:10;9.32;;;5.03;;
71108;SDS011;59614;51.012;-1.648;2023-04-03T21:52:35;11.77;;;5.65;;
71108;SDS011;59614;51.012;-1.648;2023-04-03T21:55:01;10.13;;;4.95;;
71108;SDS011;59614;51.012;-1.648;2023-04-03T21:57:27;17.15;;;6.03;;
71108;SDS011;59614;51.012;-1.648;2023-04-03T21:59:53;10.75;;;4.55;;
71108;SDS011;59614;51.012;-1.648;2023-04-03T22:02:19;13.45;;;4.80;;
71108;SDS011;59614;51.012;-1.648;2023-04-03T22:04:45;13.88;;;4.78;;
71108;SDS011;59614;51.012;-1.648;2023-04-03T22:07:11;13.88;;;6.15;;
71108;SDS011;59614;51.012;-1.648;2023-04-03T22:09:37;16.83;;;6.55;;
71108;SDS011;59614;51.012;-1.648;2023-04-03T22:12:03;12.27;;;5.88;;
71108;SDS011;59614;51.012;-1.648;2023-04-03T22:14:32;16.45;;;7.00;;
71108;SDS011;59614;51.012;-1.648;2023-04-03T22:16:57;12.98;;;6.80;;
71108;SDS011;59614;51.012;-1.648;2023-04-03T22:19:23;11.38;;;5.55;;
71108;SDS011;59614;51.012;-1.648;2023-04-03T22:21:49;10.07;;;5.18;;
71108;SDS011;59614;51.012;-1.648;2023-04-03T22:24:15;9.68;;;4.32;;
71108;SDS011;59614;51.012;-1.648;2023-04-03T22:26:43;8.55;;;3.97;;
71108;SDS011;59614;51.012;-1.648;2023-04-03T22:29:09;8.60;;;4.18;;
71108;SDS011;59614;51.012;-1.648;2023-04-03T22:31:34;8.45;;;4.05;;
71108;SDS011;59614;51.012;-1.648;2023-04-03T22:34:01;9.98;;;4.20;;
71108;SDS011;59614;51.012;-1.648;2023-04-03T22:36:29;8.40;;;3.72;;
71108;SDS011;59614;51.012;-1.648;2023-04-03T22:38:55;9.00;;;3.65;;
71108;SDS011;59614;51.012;-1.648;2023-04-03T22:41:21;10.18;;;3.83;;
71108;SDS011;59614;51.012;-1.648;2023-04-03T22:43:47;10.35;;;3.47;;
71108;SDS011;59614;51.012;-1.648;2023-04-03T22:46:13;10.23;;;3.65;;
71108;SDS011;59614;51.012;-1.648;2023-04-03T22:48:42;10.63;;;3.42;;
71108;SDS011;59614;51.012;-1.648;2023-04-03T22:51:09;8.93;;;3.50;;
71108;SDS011;59614;51.012;-1.648;2023-04-03T22:53:36;10.23;;;3.42;;
71108;SDS011;59614;51.012;-1.648;2023-04-03T22:56:03;9.70;;;3.45;;
71108;SDS011;59614;51.012;-1.648;2023-04-03T22:58:32;8.40;;;3.83;;
71108;SDS011;59614;51.012;-1.648;2023-04-03T23:01:10;15.25;;;3.90;;
71108;SDS011;59614;51.012;-1.648;2023-04-03T23:03:38;8.05;;;3.78;;
71108;SDS011;59614;51.012;-1.648;2023-04-03T23:06:05;12.30;;;4.00;;
71108;SDS011;59614;51.012;-1.648;2023-04-03T23:08:32;13.05;;;3.70;;
71108;SDS011;59614;51.012;-1.648;2023-04-03T23:11:02;8.38;;;3.80;;
71108;SDS011;59614;51.012;-1.648;2023-04-03T23:13:28;8.27;;;3.42;;
71108;SDS011;59614;51.012;-1.648;2023-04-03T23:15:54;11.80;;;3.42;;
71108;SDS011;59614;51.012;-1.648;2023-04-03T23:18:24;7.80;;;3.28;;
71108;SDS011;59614;51.012;-1.648;2023-04-03T23:20:50;10.48;;;3.78;;
71108;SDS011;59614;51.012;-1.648;2023-04-03T23:23:18;9.20;;;3.50;;
71108;SDS011;59614;51.012;-1.648;2023-04-03T23:25:53;8.48;;;3.42;;
71108;SDS011;59614;51.012;-1.648;2023-04-03T23:28:20;9.32;;;3.50;;
71108;SDS011;59614;51.012;-1.648;2023-04-03T23:30:46;7.75;;;3.38;;
71108;SDS011;59614;51.012;-1.648;2023-04-03T23:33:12;9.30;;;3.17;;
71108;SDS011;59614;51.012;-1.648;2023-04-03T23:35:44;14.05;;;3.20;;
71108;SDS011;59614;51.012;-1.648;2023-04-03T23:38:12;9.05;;;3.83;;
71108;SDS011;59614;51.012;-1.648;2023-04-03T23:40:38;6.60;;;3.20;;
71108;SDS011;59614;51.012;-1.648;2023-04-03T23:43:05;9.75;;;3.88;;
71108;SDS011;59614;51.012;-1.648;2023-04-03T23:45:31;10.40;;;3.45;;
71108;SDS011;59614;51.012;-1.648;2023-04-03T23:47:58;7.50;;;3.25;;
71108;SDS011;59614;51.012;-1.648;2023-04-03T23:50:24;10.70;;;3.45;;
71108;SDS011;59614;51.012;-1.648;2023-04-03T23:52:50;8.35;;;3.15;;
71108;SDS011;59614;51.012;-1.648;2023-04-03T23:55:15;8.15;;;3.50;;
71108;SDS011;59614;51.012;-1.648;2023-04-03T23:57:41;6.85;;;3.10;;
